createdAt,value
2023-05-23T00:01:21.405Z,96243.13
2023-05-23T00:03:49.456Z,96207.00
2023-05-23T00:06:21.277Z,96322.06
2023-05-23T00:08:48.310Z,96245.88
2023-05-23T00:11:15.324Z,96106.25
2023-05-23T00:13:42.272Z,96316.22
2023-05-23T00:16:09.770Z,96290.75
2023-05-23T00:18:38.441Z,96274.41
2023-05-23T00:21:05.182Z,96169.06
2023-05-23T00:23:34.013Z,96303.75
2023-05-23T00:26:00.741Z,96219.63
2023-05-23T00:28:28.092Z,96225.31
2023-05-23T00:30:54.824Z,96151.94
2023-05-23T00:33:22.202Z,96323.69
2023-05-23T00:35:49.326Z,96276.91
2023-05-23T00:38:16.868Z,96291.16
2023-05-23T00:40:43.526Z,96246.91
2023-05-23T00:43:10.240Z,96270.91
2023-05-23T00:45:36.898Z,96123.41
2023-05-23T00:48:03.680Z,96193.59
2023-05-23T00:50:30.525Z,96267.66
2023-05-23T00:52:57.917Z,96228.59
2023-05-23T00:55:25.130Z,96257.28
2023-05-23T00:57:55.715Z,96226.81
2023-05-23T01:00:23.178Z,96290.00
2023-05-23T01:02:53.564Z,96171.56
2023-05-23T01:05:22.738Z,96239.97
2023-05-23T01:07:50.133Z,96186.00
2023-05-23T01:10:17.866Z,96064.47
2023-05-23T01:12:57.358Z,96249.84
2023-05-23T01:15:29.682Z,96226.66
2023-05-23T01:18:02.794Z,96167.84
2023-05-23T01:20:31.716Z,96291.00
2023-05-23T01:23:01.159Z,96323.91
2023-05-23T01:25:58.293Z,96321.63
2023-05-23T01:28:32.743Z,96260.22
2023-05-23T01:30:59.441Z,96303.50
2023-05-23T01:33:26.427Z,96238.16
2023-05-23T01:35:53.081Z,96164.59
2023-05-23T01:38:19.761Z,96289.88
2023-05-23T01:40:46.463Z,96291.66
2023-05-23T01:43:13.078Z,96291.00
2023-05-23T01:45:39.989Z,96269.94
2023-05-23T01:48:06.855Z,96312.56
2023-05-23T01:50:33.566Z,96235.06
2023-05-23T01:53:00.549Z,96011.06
2023-05-23T01:55:27.262Z,96299.78
2023-05-23T01:57:55.571Z,96312.91
2023-05-23T02:00:22.403Z,96159.41
2023-05-23T02:02:49.146Z,96255.50
2023-05-23T02:05:15.864Z,96148.25
2023-05-23T02:07:42.626Z,96256.16
2023-05-23T02:10:09.714Z,96315.31
2023-05-23T02:12:36.566Z,96261.81
2023-05-23T02:15:03.455Z,96245.13
2023-05-23T02:17:30.802Z,96263.91
2023-05-23T02:19:57.591Z,96261.94
2023-05-23T02:22:27.116Z,96227.63
2023-05-23T02:24:53.766Z,96230.34
2023-05-23T02:27:20.453Z,96131.53
2023-05-23T02:29:47.156Z,96268.94
2023-05-23T02:32:13.837Z,96049.91
2023-05-23T02:34:40.703Z,96302.34
2023-05-23T02:37:07.577Z,96119.53
2023-05-23T02:39:36.314Z,96205.59
2023-05-23T02:42:03.222Z,96192.47
2023-05-23T02:44:29.937Z,96291.00
2023-05-23T02:46:56.580Z,96219.34
2023-05-23T02:49:23.276Z,96198.13
2023-05-23T02:51:50.110Z,96191.50
2023-05-23T02:54:16.978Z,96171.25
2023-05-23T02:56:45.431Z,96001.34
2023-05-23T02:59:12.478Z,96269.28
2023-05-23T03:01:39.149Z,96194.56
2023-05-23T03:04:05.985Z,96196.03
2023-05-23T03:06:34.184Z,96217.44
2023-05-23T03:09:01.540Z,96178.66
2023-05-23T03:11:29.960Z,96205.25
2023-05-23T03:13:56.920Z,96181.94
2023-05-23T03:16:24.525Z,96189.19
2023-05-23T03:18:51.361Z,96252.41
2023-05-23T03:21:18.155Z,96208.63
2023-05-23T03:23:44.816Z,96211.66
2023-05-23T03:26:11.893Z,96242.91
2023-05-23T03:28:38.619Z,96235.75
2023-05-23T03:31:05.548Z,96219.00
2023-05-23T03:33:32.273Z,96087.03
2023-05-23T03:35:59.013Z,96176.38
2023-05-23T03:38:26.334Z,96233.97
2023-05-23T03:40:53.053Z,95961.09
2023-05-23T03:43:19.741Z,96013.63
2023-05-23T03:45:46.521Z,96213.13
2023-05-23T03:48:13.241Z,96200.44
2023-05-23T03:50:39.947Z,96222.63
2023-05-23T03:53:07.300Z,96245.03
2023-05-23T03:55:34.428Z,96103.66
2023-05-23T03:58:01.139Z,96174.97
2023-05-23T04:00:27.989Z,96194.78
2023-05-23T04:02:55.069Z,96180.06
2023-05-23T04:05:21.907Z,95985.72
2023-05-23T04:07:49.293Z,96221.16
2023-05-23T04:10:16.468Z,96182.38
2023-05-23T04:12:43.738Z,96177.41
2023-05-23T04:15:11.452Z,96153.47
2023-05-23T04:17:39.001Z,96189.03
2023-05-23T04:20:10.279Z,96129.66
2023-05-23T04:22:37.238Z,96167.09
2023-05-23T04:25:04.326Z,96214.44
2023-05-23T04:27:31.069Z,96230.50
2023-05-23T04:29:58.822Z,96176.06
2023-05-23T04:32:26.273Z,96079.28
2023-05-23T04:34:53.010Z,96022.03
2023-05-23T04:37:26.191Z,96166.78
2023-05-23T04:39:53.433Z,96193.25
2023-05-23T04:42:24.530Z,96230.66
2023-05-23T04:44:52.862Z,96166.13
2023-05-23T04:47:19.710Z,96135.31
2023-05-23T04:49:46.343Z,96157.06
2023-05-23T04:52:13.491Z,96153.59
2023-05-23T04:54:45.110Z,96193.78
2023-05-23T04:57:12.510Z,96154.84
2023-05-23T04:59:39.517Z,96177.13
2023-05-23T05:02:06.596Z,96189.41
2023-05-23T05:04:33.276Z,96175.41
2023-05-23T05:07:00.031Z,96156.97
2023-05-23T05:09:26.710Z,96141.28
2023-05-23T05:11:53.355Z,96155.44
2023-05-23T05:14:20.082Z,96167.75
2023-05-23T05:16:48.039Z,96136.13
2023-05-23T05:19:14.961Z,96153.06
2023-05-23T05:21:41.779Z,96194.59
2023-05-23T05:24:11.232Z,96158.19
2023-05-23T05:26:37.940Z,96164.66
2023-05-23T05:29:04.700Z,96172.16
2023-05-23T05:31:31.447Z,95973.16
2023-05-23T05:33:58.544Z,96109.88
2023-05-23T05:36:25.229Z,96180.97
2023-05-23T05:38:53.238Z,96094.94
2023-05-23T05:41:24.378Z,96140.13
2023-05-23T05:43:51.167Z,96139.47
2023-05-23T05:46:17.836Z,96146.91
2023-05-23T05:48:45.963Z,96159.50
2023-05-23T05:51:12.650Z,96159.19
2023-05-23T05:53:39.307Z,96154.38
2023-05-23T05:56:06.197Z,96143.91
2023-05-23T05:58:32.958Z,96132.81
2023-05-23T06:00:59.937Z,96101.09
2023-05-23T06:03:27.496Z,96159.28
2023-05-23T06:05:54.391Z,96138.31
2023-05-23T06:08:21.050Z,96134.66
2023-05-23T06:10:47.813Z,96051.16
2023-05-23T06:13:14.883Z,96129.38
2023-05-23T06:15:41.560Z,96154.06
2023-05-23T06:18:08.251Z,96146.28
2023-05-23T06:20:34.900Z,96126.41
2023-05-23T06:23:01.925Z,96153.88
2023-05-23T06:25:28.657Z,96104.97
2023-05-23T06:27:55.545Z,96014.19
2023-05-23T06:30:23.276Z,96137.91
2023-05-23T06:32:50.015Z,96089.06
2023-05-23T06:35:17.852Z,96056.88
2023-05-23T06:37:46.007Z,96155.31
2023-05-23T06:40:14.671Z,96161.38
2023-05-23T06:42:41.766Z,95964.66
2023-05-23T06:45:09.360Z,96164.47
2023-05-23T06:47:36.090Z,96122.28
2023-05-23T06:50:03.267Z,96117.38
2023-05-23T06:52:29.911Z,96082.63
2023-05-23T06:54:56.676Z,96145.38
2023-05-23T06:57:23.376Z,96099.19
2023-05-23T06:59:50.056Z,96087.47
2023-05-23T07:02:16.836Z,96100.00
2023-05-23T07:04:43.616Z,96057.06
2023-05-23T07:07:10.255Z,96088.66
2023-05-23T07:09:38.472Z,96101.63
2023-05-23T07:12:06.164Z,96091.59
2023-05-23T07:14:35.691Z,96093.53
2023-05-23T07:17:02.537Z,96077.50
2023-05-23T07:19:29.416Z,96030.06
2023-05-23T07:21:56.242Z,96074.34
2023-05-23T07:24:25.083Z,96113.84
2023-05-23T07:26:52.306Z,96091.00
2023-05-23T07:29:19.144Z,95788.56
2023-05-23T07:31:46.025Z,96084.63
2023-05-23T07:34:12.762Z,95968.00
2023-05-23T07:36:40.948Z,95955.59
2023-05-23T07:39:08.247Z,96048.13
2023-05-23T07:41:34.939Z,95936.72
2023-05-23T07:44:01.642Z,96055.16
2023-05-23T07:46:28.404Z,96085.22
2023-05-23T07:48:55.508Z,95969.31
2023-05-23T07:51:22.389Z,96057.41
2023-05-23T07:53:49.015Z,96038.00
2023-05-23T07:56:16.024Z,96065.38
2023-05-23T07:58:46.038Z,96082.53
2023-05-23T08:01:12.838Z,96052.66
2023-05-23T08:03:39.776Z,96023.38
2023-05-23T08:06:07.676Z,96065.00
2023-05-23T08:08:34.365Z,96020.13
2023-05-23T08:11:01.078Z,96041.09
2023-05-23T08:13:28.612Z,96080.41
2023-05-23T08:15:57.441Z,96093.34
2023-05-23T08:18:24.242Z,96057.97
2023-05-23T08:20:51.005Z,96043.03
2023-05-23T08:23:18.077Z,95980.84
2023-05-23T08:25:44.953Z,95900.22
2023-05-23T08:28:11.651Z,96057.78
2023-05-23T08:30:38.332Z,96020.69
2023-05-23T08:33:05.239Z,96039.94
2023-05-23T08:35:36.700Z,96045.47
2023-05-23T08:38:06.166Z,96027.94
2023-05-23T08:40:33.348Z,96016.97
2023-05-23T08:43:00.144Z,96022.94
2023-05-23T08:45:27.127Z,96091.34
2023-05-23T08:47:53.854Z,96062.59
2023-05-23T08:50:23.050Z,96008.78
2023-05-23T08:52:57.867Z,96050.59
2023-05-23T08:55:27.323Z,95990.63
2023-05-23T08:57:54.764Z,96038.22
2023-05-23T09:00:22.568Z,96059.81
2023-05-23T09:02:49.609Z,95813.28
2023-05-23T09:05:17.030Z,95999.00
2023-05-23T09:07:47.566Z,95797.09
2023-05-23T09:10:14.645Z,96112.50
2023-05-23T09:12:41.285Z,96092.03
2023-05-23T09:15:09.601Z,95841.47
2023-05-23T09:17:36.463Z,95976.41
2023-05-23T09:20:23.674Z,96052.66
2023-05-23T09:22:50.630Z,96023.16
2023-05-23T09:25:17.528Z,96085.38
2023-05-23T09:27:47.586Z,96008.31
2023-05-23T09:30:15.233Z,96077.19
2023-05-23T09:32:42.541Z,96077.19
2023-05-23T09:35:14.340Z,95861.59
2023-05-23T09:37:45.925Z,95967.66
2023-05-23T09:40:14.315Z,96003.53
2023-05-23T09:42:46.721Z,96060.44
2023-05-23T09:45:14.049Z,95966.03
2023-05-23T09:47:52.942Z,96108.03
2023-05-23T09:50:20.449Z,96108.56
2023-05-23T09:52:51.213Z,95794.50
2023-05-23T09:55:18.699Z,96033.59
2023-05-23T09:57:45.920Z,96090.25
2023-05-23T10:00:13.898Z,95957.78
2023-05-23T10:02:59.530Z,96089.41
2023-05-23T10:05:41.176Z,96088.91
2023-05-23T10:08:39.049Z,95979.31
2023-05-23T10:11:14.767Z,96081.44
2023-05-23T10:13:42.118Z,96052.19
2023-05-23T10:16:27.756Z,96017.09
2023-05-23T10:18:58.071Z,95954.84
2023-05-23T10:21:28.460Z,96076.94
2023-05-23T10:23:55.100Z,96036.25
2023-05-23T10:26:22.281Z,95936.00
2023-05-23T10:28:48.988Z,95961.75
2023-05-23T10:31:15.819Z,96068.69
2023-05-23T10:33:44.038Z,95980.41
2023-05-23T10:36:19.439Z,95999.53
2023-05-23T10:39:00.700Z,95943.75
2023-05-23T10:41:56.201Z,96054.31
2023-05-23T10:44:30.241Z,95999.81
2023-05-23T10:47:04.377Z,96000.09
2023-05-23T10:49:37.720Z,96051.13
2023-05-23T10:52:04.575Z,96011.50
2023-05-23T10:54:48.143Z,95960.97
2023-05-23T10:57:22.033Z,95987.59
2023-05-23T10:59:52.150Z,96015.22
2023-05-23T11:02:25.700Z,95969.25
2023-05-23T11:05:23.206Z,96050.56
2023-05-23T11:08:11.723Z,96027.69
2023-05-23T11:10:59.563Z,96036.75
2023-05-23T11:13:26.516Z,95851.53
2023-05-23T11:15:53.388Z,95922.72
2023-05-23T11:18:39.092Z,95891.66
2023-05-23T11:21:05.742Z,95955.13
2023-05-23T11:23:44.390Z,95967.91
2023-05-23T11:26:30.265Z,96005.13
2023-05-23T11:28:57.776Z,95983.84
2023-05-23T11:31:24.660Z,95866.97
2023-05-23T11:33:51.861Z,96010.72
2023-05-23T11:36:18.794Z,95921.69
2023-05-23T11:38:45.722Z,95987.00
2023-05-23T11:41:12.585Z,95947.91
2023-05-23T11:43:49.720Z,95978.69
2023-05-23T11:46:16.449Z,95932.22
2023-05-23T11:48:46.769Z,95962.25
2023-05-23T11:51:13.464Z,95926.94
2023-05-23T11:53:40.328Z,95901.50
2023-05-23T11:56:07.137Z,95955.19
2023-05-23T11:58:37.609Z,95812.75
2023-05-23T12:01:08.405Z,95915.56
2023-05-23T12:03:35.794Z,95914.19
2023-05-23T12:06:02.812Z,95786.22
2023-05-23T12:08:29.522Z,95938.44
2023-05-23T12:11:00.524Z,95940.72
2023-05-23T12:13:28.975Z,96005.53
2023-05-23T12:16:06.505Z,95988.97
2023-05-23T12:18:38.874Z,95944.66
2023-05-23T12:21:08.921Z,95976.16
2023-05-23T12:23:36.088Z,96032.97
2023-05-23T12:26:08.313Z,96050.97
2023-05-23T12:28:47.931Z,96069.19
2023-05-23T12:31:19.651Z,96059.44
2023-05-23T12:33:48.333Z,96148.22
2023-05-23T12:36:41.882Z,96099.41
2023-05-23T12:39:15.132Z,96047.91
2023-05-23T12:41:42.202Z,95950.06
2023-05-23T12:44:08.845Z,96033.94
2023-05-23T12:46:35.803Z,95993.44
2023-05-23T12:49:02.582Z,96046.31
2023-05-23T12:51:29.728Z,96013.66
2023-05-23T12:53:58.028Z,95996.16
2023-05-23T12:56:25.461Z,95995.50
2023-05-23T12:58:53.870Z,95826.25
2023-05-23T13:01:20.596Z,95806.38
2023-05-23T13:03:47.407Z,96026.66
2023-05-23T13:06:14.329Z,96016.28
2023-05-23T13:08:41.797Z,96043.28
2023-05-23T13:11:08.995Z,95925.97
2023-05-23T14:59:58.691Z,96065.16
2023-05-23T15:02:25.361Z,96012.72
2023-05-23T15:04:52.430Z,96016.81
2023-05-23T15:07:19.193Z,96010.09
2023-05-23T15:09:47.360Z,95976.75
2023-05-23T15:12:15.338Z,95987.06
2023-05-23T15:14:43.544Z,95826.44
2023-05-23T15:17:12.707Z,96034.59
2023-05-23T15:19:42.816Z,96009.72
2023-05-23T15:22:18.432Z,96047.28
2023-05-23T15:24:58.632Z,96002.88
2023-05-23T15:27:25.406Z,96029.78
2023-05-23T15:29:52.068Z,96059.91
2023-05-23T15:32:18.743Z,96014.91
2023-05-23T15:34:45.503Z,96043.44
2023-05-23T15:37:12.258Z,95817.50
2023-05-23T15:39:38.917Z,96014.91
2023-05-23T15:42:06.016Z,96029.31
2023-05-23T15:44:32.728Z,96022.00
2023-05-23T15:46:59.411Z,96035.97
2023-05-23T15:49:27.182Z,95804.94
2023-05-23T15:51:55.305Z,95990.97
2023-05-23T15:54:22.486Z,96038.41
2023-05-23T15:56:49.238Z,96038.16
2023-05-23T15:59:15.917Z,95990.72
2023-05-23T16:01:42.780Z,96035.03
2023-05-23T16:04:09.915Z,95948.41
2023-05-23T16:06:36.853Z,95964.84
2023-05-23T16:09:03.729Z,95922.16
2023-05-23T16:11:30.503Z,96000.06
2023-05-23T16:13:57.160Z,96025.34
2023-05-23T16:16:23.958Z,95908.97
2023-05-23T16:18:50.812Z,95971.03
2023-05-23T16:21:20.658Z,96048.91
2023-05-23T16:23:50.728Z,96056.63
2023-05-23T16:26:19.608Z,95986.06
2023-05-23T16:28:46.521Z,95878.00
2023-05-23T16:31:14.211Z,95942.78
2023-05-23T16:33:41.050Z,96017.31
2023-05-23T16:36:07.920Z,96075.94
2023-05-23T16:38:34.780Z,96075.94
2023-05-23T16:41:01.485Z,96055.53
2023-05-23T16:43:28.170Z,95840.03
2023-05-23T16:45:54.915Z,96009.81
2023-05-23T16:48:22.269Z,96031.56
2023-05-23T16:50:48.926Z,96085.69
2023-05-23T16:53:15.759Z,96091.41
2023-05-23T16:55:42.718Z,95704.94
2023-05-23T16:58:09.542Z,96119.84
2023-05-23T17:00:36.255Z,96103.97
2023-05-23T17:03:03.087Z,95987.22
2023-05-23T17:05:29.823Z,96065.47
2023-05-23T17:07:56.575Z,96133.13
2023-05-23T17:10:23.412Z,96104.84
2023-05-23T17:12:50.126Z,96079.00
2023-05-23T17:15:16.857Z,96030.88
2023-05-23T17:17:43.611Z,96002.91
2023-05-23T17:20:10.476Z,96065.91
2023-05-23T17:22:38.042Z,96050.63
2023-05-23T17:25:06.501Z,95946.69
2023-05-23T17:27:33.317Z,96115.44
2023-05-23T17:30:00.074Z,96122.69
2023-05-23T17:32:27.229Z,95963.81
2023-05-23T17:34:53.879Z,96129.16
2023-05-23T17:37:20.683Z,96114.28
2023-05-23T17:39:48.729Z,96116.72
2023-05-23T17:42:16.026Z,96084.16
2023-05-23T17:44:43.172Z,96155.59
2023-05-23T17:47:09.891Z,96085.00
2023-05-23T17:49:38.837Z,96134.91
2023-05-23T17:52:06.975Z,96090.28
2023-05-23T17:54:33.625Z,96148.25
2023-05-23T17:57:00.323Z,96109.81
2023-05-23T17:59:28.148Z,96091.31
2023-05-23T18:01:54.985Z,96052.88
2023-05-23T18:04:22.318Z,96094.97
2023-05-23T18:06:49.002Z,96155.34
2023-05-23T18:09:16.775Z,96129.59
2023-05-23T18:11:43.504Z,96101.63
2023-05-23T18:14:10.299Z,96135.81
2023-05-23T18:16:37.364Z,96149.94
2023-05-23T18:19:04.898Z,96188.41
2023-05-23T18:21:32.435Z,96072.81
2023-05-23T18:23:59.086Z,96108.66
2023-05-23T18:26:25.807Z,96169.09
2023-05-23T18:28:52.614Z,96044.25
2023-05-23T18:31:19.272Z,96158.22
2023-05-23T18:33:46.121Z,95977.47
2023-05-23T18:36:12.821Z,96185.41
2023-05-23T18:38:40.983Z,96189.44
2023-05-23T18:41:07.950Z,96179.59
2023-05-23T18:43:34.579Z,96197.09
2023-05-23T18:46:01.241Z,96182.59
2023-05-23T18:48:27.929Z,96049.91
2023-05-23T18:50:54.721Z,96123.19
2023-05-23T18:53:21.369Z,96170.94
2023-05-23T18:55:48.066Z,96046.72
2023-05-23T18:58:14.929Z,96195.94
2023-05-23T19:00:44.453Z,96096.44
2023-05-23T19:03:11.300Z,96124.63
2023-05-23T19:05:38.145Z,96034.84
2023-05-23T19:08:05.027Z,96207.25
2023-05-23T19:10:31.678Z,95999.00
2023-05-23T19:12:58.364Z,96177.63
2023-05-23T19:15:25.192Z,96157.03
2023-05-23T19:17:51.898Z,96160.09
2023-05-23T19:20:20.136Z,96153.25
2023-05-23T19:22:51.937Z,96195.38
2023-05-23T19:25:20.433Z,96232.03
2023-05-23T19:27:47.101Z,96232.25
2023-05-23T19:30:13.840Z,96219.16
2023-05-23T19:32:40.607Z,96112.53
2023-05-23T19:35:08.383Z,96166.13
2023-05-23T19:37:35.182Z,96127.63
2023-05-23T19:40:02.017Z,96137.91
2023-05-23T19:42:28.762Z,96067.41
2023-05-23T19:44:55.578Z,96236.44
2023-05-23T19:47:22.355Z,96154.81
2023-05-23T19:49:49.166Z,96174.16
2023-05-23T19:52:15.943Z,96149.16
2023-05-23T19:54:42.695Z,96218.66
2023-05-23T19:57:09.406Z,96170.28
2023-05-23T19:59:36.141Z,96128.09
2023-05-23T20:02:02.793Z,96113.41
2023-05-23T20:04:29.728Z,96208.97
2023-05-23T20:06:56.745Z,96126.13
2023-05-23T20:09:23.572Z,96061.00
2023-05-23T20:11:50.458Z,96163.03
2023-05-23T20:14:17.125Z,96210.00
2023-05-23T20:16:43.920Z,96180.53
2023-05-23T20:19:10.690Z,96067.25
2023-05-23T20:21:37.652Z,96131.16
2023-05-23T20:24:04.536Z,96202.09
2023-05-23T20:26:31.574Z,96176.69
2023-05-23T20:28:58.403Z,96200.25
2023-05-23T20:31:25.222Z,96236.56
2023-05-23T20:33:52.615Z,96210.34
2023-05-23T20:36:21.141Z,96261.34
2023-05-23T20:38:48.019Z,96183.09
2023-05-23T20:41:14.854Z,96197.81
2023-05-23T20:43:41.602Z,96234.88
2023-05-23T20:46:11.709Z,96109.56
2023-05-23T20:48:38.905Z,96241.06
2023-05-23T20:51:06.020Z,96194.06
2023-05-23T20:53:32.849Z,96017.34
2023-05-23T20:55:59.793Z,96301.78
2023-05-23T20:58:27.255Z,96227.47
2023-05-23T21:00:54.040Z,96243.69
2023-05-23T21:03:21.015Z,96264.63
2023-05-23T21:05:47.728Z,96238.44
2023-05-23T21:08:14.447Z,96171.44
2023-05-23T21:10:41.740Z,96198.06
2023-05-23T21:13:08.640Z,96218.78
2023-05-23T21:15:35.365Z,96232.31
2023-05-23T21:18:02.092Z,96260.72
2023-05-23T21:20:29.337Z,96207.47
2023-05-23T21:22:56.068Z,96316.63
2023-05-23T21:25:22.861Z,96257.72
2023-05-23T21:27:49.513Z,96176.63
2023-05-23T21:30:16.386Z,96250.84
2023-05-23T21:32:43.645Z,96261.19
2023-05-23T21:35:10.645Z,96252.69
2023-05-23T21:37:37.306Z,96284.59
2023-05-23T21:40:04.381Z,96150.75
2023-05-23T21:42:31.180Z,96115.47
2023-05-23T21:44:57.939Z,96067.06
2023-05-23T21:47:25.203Z,96298.47
2023-05-23T21:50:05.564Z,96222.59
2023-05-23T21:52:32.748Z,96236.13
2023-05-23T21:54:59.563Z,96213.31
2023-05-23T21:57:26.322Z,96235.91
2023-05-23T21:59:53.060Z,96190.09
2023-05-23T22:02:19.752Z,96192.88
2023-05-23T22:04:46.740Z,96301.06
2023-05-23T22:07:13.396Z,96220.50
2023-05-23T22:09:40.069Z,96027.22
2023-05-23T22:12:07.540Z,96232.53
2023-05-23T22:14:34.181Z,96300.78
2023-05-23T22:17:02.403Z,96247.66
2023-05-23T22:19:30.382Z,96225.22
2023-05-23T22:21:57.097Z,96298.28
2023-05-23T22:24:24.097Z,96219.53
2023-05-23T22:26:50.936Z,96255.50
2023-05-23T22:29:17.597Z,96262.34
2023-05-23T22:31:44.433Z,96116.19
2023-05-23T22:34:11.232Z,96264.13
2023-05-23T22:36:39.094Z,96166.66
2023-05-23T22:39:05.835Z,96258.84
2023-05-23T22:41:32.580Z,96324.31
2023-05-23T22:43:59.633Z,96165.03
2023-05-23T22:46:26.536Z,96315.03
2023-05-23T22:48:55.221Z,96194.47
2023-05-23T22:51:22.293Z,96252.81
2023-05-23T22:53:49.064Z,96268.13
2023-05-23T22:56:15.820Z,96285.69
2023-05-23T22:58:42.560Z,96175.53
2023-05-23T23:01:09.607Z,96244.69
2023-05-23T23:03:36.454Z,96234.59
2023-05-23T23:06:06.205Z,96230.59
2023-05-23T23:08:33.430Z,96185.28
2023-05-23T23:11:00.109Z,96247.84
2023-05-23T23:13:26.902Z,96257.44
2023-05-23T23:15:54.472Z,96263.06
2023-05-23T23:18:21.278Z,96209.97
2023-05-23T23:20:48.417Z,96260.16
2023-05-23T23:23:15.213Z,96353.16
2023-05-23T23:25:41.898Z,96285.25
2023-05-23T23:28:08.563Z,96039.16
2023-05-23T23:30:35.194Z,96265.66
2023-05-23T23:33:01.982Z,96215.63
2023-05-23T23:35:28.806Z,96043.19
2023-05-23T23:37:55.483Z,96292.69
2023-05-23T23:40:22.381Z,96165.69
2023-05-23T23:42:48.980Z,96314.09
2023-05-23T23:45:15.684Z,96291.88
2023-05-23T23:47:42.862Z,96295.09
2023-05-23T23:50:09.710Z,96211.28
2023-05-23T23:52:39.136Z,96280.53
2023-05-23T23:55:06.212Z,96315.50
2023-05-23T23:57:32.968Z,96309.66
2023-05-23T23:59:59.739Z,96308.81
